createdAt,value
2022-08-11T00:03:16.913Z,101174.00
2022-08-11T00:05:48.470Z,101167.19
2022-08-11T00:08:23.510Z,101169.88
2022-08-11T00:10:55.993Z,101145.41
2022-08-11T00:13:32.267Z,101166.84
2022-08-11T00:16:00.795Z,101161.03
2022-08-11T00:18:29.840Z,101156.31
2022-08-11T00:21:01.496Z,100969.66
2022-08-11T00:23:29.704Z,101133.19
2022-08-11T00:25:59.020Z,101137.81
2022-08-11T00:28:29.320Z,101169.81
2022-08-11T00:31:00.027Z,101170.69
2022-08-11T00:33:41.868Z,101163.97
2022-08-11T00:36:20.833Z,101116.72
2022-08-11T00:38:53.539Z,101167.03
2022-08-11T00:41:33.453Z,101169.81
2022-08-11T00:44:27.805Z,101172.66
2022-08-11T00:47:06.264Z,101129.88
2022-08-11T00:49:47.710Z,101163.47
2022-08-11T00:52:40.381Z,101162.28
2022-08-11T00:55:47.297Z,101176.03
2022-08-11T00:59:34.391Z,101176.44
2022-08-11T01:02:07.064Z,101174.97
2022-08-11T01:05:12.581Z,101177.81
2022-08-11T01:08:30.495Z,101153.41
2022-08-11T01:11:26.045Z,101171.31
2022-08-11T01:14:34.206Z,101171.53
2022-08-11T01:17:35.790Z,101177.81
2022-08-11T01:20:45.904Z,100987.66
2022-08-11T01:23:55.040Z,101165.53
2022-08-11T01:26:55.247Z,101175.03
2022-08-11T01:29:55.600Z,101176.94
2022-08-11T01:33:06.736Z,101156.38
2022-08-11T01:36:03.549Z,101173.31
2022-08-11T01:39:04.155Z,101130.69
2022-08-11T01:42:27.993Z,101188.91
2022-08-11T01:45:31.554Z,101188.22
2022-08-11T01:48:06.136Z,101170.66
2022-08-11T01:50:47.463Z,101150.41
2022-08-11T01:53:29.630Z,101127.97
2022-08-11T01:56:12.059Z,101145.09
2022-08-11T01:58:49.415Z,101152.75
2022-08-11T02:01:34.779Z,101068.78
2022-08-11T02:04:17.117Z,101054.59
2022-08-11T02:06:56.380Z,101197.03
2022-08-11T02:09:49.715Z,101004.38
2022-08-11T02:12:32.112Z,101162.22
2022-08-11T02:15:09.128Z,100986.22
2022-08-11T02:17:49.360Z,101148.72
2022-08-11T02:20:41.541Z,101085.75
2022-08-11T02:24:04.489Z,101186.81
2022-08-11T02:26:36.565Z,101196.50
2022-08-11T02:29:12.500Z,101194.13
2022-08-11T02:32:25.008Z,101152.94
2022-08-11T02:35:04.843Z,101045.13
2022-08-11T02:37:45.164Z,101186.84
2022-08-11T02:40:35.433Z,101116.91
2022-08-11T02:43:15.072Z,101044.63
2022-08-11T02:45:55.594Z,101193.16
2022-08-11T02:48:54.967Z,101191.50
2022-08-11T02:51:31.265Z,101024.78
2022-08-11T02:54:09.795Z,101193.53
2022-08-11T02:56:52.265Z,101196.97
2022-08-11T02:59:51.261Z,101194.50
2022-08-11T03:02:34.656Z,100931.78
2022-08-11T03:05:11.876Z,101198.22
2022-08-11T03:07:49.319Z,101201.69
2022-08-11T03:10:24.291Z,101069.69
2022-08-11T03:13:19.913Z,101196.72
2022-08-11T03:16:19.137Z,101050.31
2022-08-11T03:19:02.678Z,101041.97
2022-08-11T03:21:52.334Z,101154.19
2022-08-11T03:24:34.998Z,101039.09
2022-08-11T03:27:08.524Z,101166.88
2022-08-11T03:29:48.873Z,101191.38
2022-08-11T03:32:27.412Z,101197.50
2022-08-11T03:34:57.421Z,101169.53
2022-08-11T03:37:50.901Z,101050.97
2022-08-11T03:42:01.948Z,101130.06
2022-08-11T03:44:09.041Z,101197.09
2022-08-11T03:46:57.445Z,100977.97
2022-08-11T03:49:35.006Z,100936.75
2022-08-11T03:52:14.293Z,101193.97
2022-08-11T03:54:55.457Z,101043.88
2022-08-11T03:58:03.712Z,101070.19
2022-08-11T04:01:00.572Z,101167.34
2022-08-11T04:04:13.060Z,101199.59
2022-08-11T04:07:29.596Z,101203.09
2022-08-11T04:10:23.277Z,101193.13
2022-08-11T04:13:36.346Z,101201.59
2022-08-11T04:16:42.153Z,101189.03
2022-08-11T04:19:45.904Z,101193.28
2022-08-11T04:22:48.483Z,101201.72
2022-08-11T04:25:57.561Z,101167.13
2022-08-11T04:28:51.096Z,101199.06
2022-08-11T04:31:44.056Z,101205.94
2022-08-11T04:34:52.081Z,101182.25
2022-08-11T04:37:53.622Z,101203.16
2022-08-11T04:41:19.494Z,101152.44
2022-08-11T04:44:21.461Z,101051.41
2022-08-11T04:47:05.162Z,101206.41
2022-08-11T04:50:13.761Z,101218.22
2022-08-11T04:53:22.152Z,101196.56
2022-08-11T04:56:26.135Z,101209.00
2022-08-11T04:59:29.997Z,101198.31
2022-08-11T05:02:38.598Z,101173.28
2022-08-11T05:05:32.701Z,101199.06
2022-08-11T05:08:51.480Z,101215.66
2022-08-11T05:11:44.977Z,101216.13
2022-08-11T05:14:51.053Z,101219.25
2022-08-11T05:17:46.466Z,101206.59
2022-08-11T05:20:32.288Z,101211.38
2022-08-11T05:23:24.063Z,101210.41
2022-08-11T05:26:46.149Z,101212.22
2022-08-11T05:29:24.356Z,101210.34
2022-08-11T05:32:19.580Z,101210.50
2022-08-11T05:34:53.883Z,101211.66
2022-08-11T05:37:31.934Z,101206.91
2022-08-11T05:40:24.380Z,101212.16
2022-08-11T05:43:16.129Z,101211.16
2022-08-11T05:46:06.251Z,101204.22
2022-08-11T05:48:55.567Z,101203.31
2022-08-11T05:51:54.663Z,101143.91
2022-08-11T05:54:42.138Z,101209.81
2022-08-11T05:57:48.521Z,101164.50
2022-08-11T06:00:10.590Z,101207.50
2022-08-11T06:02:43.199Z,101210.88
2022-08-11T06:05:12.628Z,101203.28
2022-08-11T06:07:49.138Z,101201.97
2022-08-11T06:10:29.985Z,101202.72
2022-08-11T06:13:00.988Z,101202.53
2022-08-11T06:15:35.087Z,101193.16
2022-08-11T06:18:13.036Z,101080.16
2022-08-11T06:20:48.653Z,101034.75
2022-08-11T06:23:19.583Z,101137.81
2022-08-11T06:25:48.400Z,101136.59
2022-08-11T06:28:20.715Z,101079.69
2022-08-11T06:30:51.376Z,101135.97
2022-08-11T06:33:30.622Z,101009.28
2022-08-11T06:36:06.866Z,101190.59
2022-08-11T06:38:54.806Z,101196.19
2022-08-11T06:41:31.938Z,101119.72
2022-08-11T06:44:29.105Z,100993.34
2022-08-11T06:47:08.067Z,101115.66
2022-08-11T06:49:56.675Z,101150.41
2022-08-11T06:52:44.049Z,101188.06
2022-08-11T06:55:56.787Z,101028.22
2022-08-11T06:58:45.281Z,101068.66
2022-08-11T07:01:22.515Z,101026.72
2022-08-11T07:04:07.977Z,101069.38
2022-08-11T07:07:11.312Z,101037.94
2022-08-11T07:10:22.621Z,101117.03
2022-08-11T07:13:44.575Z,101006.91
2022-08-11T07:16:11.317Z,101164.97
2022-08-11T07:19:00.679Z,101171.50
2022-08-11T07:22:03.182Z,101179.78
2022-08-11T07:24:58.595Z,101168.69
2022-08-11T07:27:54.391Z,101166.25
2022-08-11T07:30:22.422Z,101170.56
2022-08-11T07:32:52.806Z,101156.22
2022-08-11T07:35:25.462Z,101158.72
2022-08-11T07:38:02.172Z,101161.78
2022-08-11T07:40:32.311Z,101157.34
2022-08-11T07:43:02.276Z,101158.88
2022-08-11T07:45:48.809Z,101115.69
2022-08-11T07:48:35.053Z,101141.28
2022-08-11T07:51:21.530Z,101140.06
2022-08-11T07:53:58.700Z,101149.06
2022-08-11T07:56:55.383Z,101124.66
2022-08-11T08:00:00.632Z,101143.78
2022-08-11T08:02:58.542Z,101148.13
2022-08-11T08:05:44.702Z,101126.56
2022-08-11T08:08:33.074Z,101155.22
2022-08-11T08:11:23.994Z,101149.84
2022-08-11T08:14:14.101Z,101145.34
2022-08-11T08:17:00.730Z,101153.91
2022-08-11T08:19:29.370Z,101154.16
2022-08-11T08:22:37.456Z,101145.94
2022-08-11T08:24:46.380Z,101158.78
2022-08-11T08:27:16.320Z,101154.88
2022-08-11T08:30:04.054Z,101153.59
2022-08-11T08:32:35.056Z,101144.66
2022-08-11T08:35:05.464Z,101148.06
2022-08-11T08:37:45.685Z,101146.47
2022-08-11T08:40:16.043Z,101150.13
2022-08-11T08:42:51.410Z,101143.34
2022-08-11T08:45:20.167Z,101144.22
2022-08-11T08:47:53.449Z,101134.22
2022-08-11T08:50:27.705Z,101139.25
2022-08-11T08:52:59.311Z,101141.78
2022-08-11T08:55:29.655Z,101133.97
2022-08-11T08:58:01.035Z,101132.91
2022-08-11T09:00:40.613Z,101138.19
2022-08-11T09:03:36.625Z,101142.22
2022-08-11T09:05:58.439Z,101136.84
2022-08-11T09:08:27.479Z,101126.13
2022-08-11T09:11:14.488Z,101140.38
2022-08-11T09:13:45.987Z,101134.81
2022-08-11T09:16:31.732Z,101133.28
2022-08-11T09:19:02.317Z,101130.13
2022-08-11T09:21:46.499Z,101127.16
2022-08-11T09:24:36.149Z,101118.84
2022-08-11T09:27:07.103Z,101119.31
2022-08-11T09:29:38.909Z,101126.13
2022-08-11T09:32:08.790Z,101131.25
2022-08-11T09:34:38.161Z,101129.41
2022-08-11T09:37:54.945Z,101110.63
2022-08-11T09:40:33.617Z,101088.28
2022-08-11T09:43:23.658Z,101104.16
2022-08-11T09:45:55.524Z,101108.44
2022-08-11T09:48:26.148Z,101115.59
2022-08-11T09:50:56.226Z,101107.72
2022-08-11T09:53:41.065Z,101079.78
2022-08-11T09:56:34.341Z,101079.97
2022-08-11T09:59:04.328Z,101076.56
2022-08-11T10:01:41.617Z,101099.72
2022-08-11T10:04:16.214Z,101091.81
2022-08-11T10:07:04.171Z,101094.88
2022-08-11T10:09:39.053Z,101099.34
2022-08-11T10:12:11.589Z,101082.31
2022-08-11T10:15:02.667Z,101075.56
2022-08-11T10:18:06.235Z,101036.84
2022-08-11T10:26:00.148Z,101074.53
2022-08-11T10:28:33.590Z,101074.50
2022-08-11T10:31:36.291Z,101035.69
2022-08-11T10:34:16.552Z,101037.69
2022-08-11T10:36:48.178Z,101059.19
2022-08-11T10:39:21.193Z,101073.38
2022-08-11T10:42:10.791Z,101077.50
2022-08-11T10:44:46.474Z,101078.03
2022-08-11T10:47:46.797Z,101071.22
2022-08-11T10:50:36.813Z,101066.72
2022-08-11T10:53:22.527Z,101059.09
2022-08-11T10:56:08.699Z,101062.28
2022-08-11T10:58:48.682Z,101055.00
2022-08-11T11:01:20.235Z,101023.75
2022-08-11T11:03:49.132Z,100953.66
2022-08-11T11:06:28.388Z,101002.50
2022-08-11T11:09:04.573Z,101039.56
2022-08-11T11:11:55.340Z,101035.56
2022-08-11T11:14:46.786Z,101035.88
2022-08-11T11:21:45.269Z,101021.91
2022-08-11T11:24:22.495Z,101008.59
2022-08-11T11:26:56.755Z,100993.66
2022-08-11T11:29:52.982Z,101002.78
2022-08-11T11:32:28.800Z,101012.47
2022-08-11T11:35:18.965Z,101000.06
2022-08-11T11:38:03.902Z,100996.53
2022-08-11T11:45:37.353Z,101014.34
2022-08-11T11:58:06.324Z,100935.50
2022-08-11T12:05:16.353Z,100807.53
2022-08-11T12:08:29.135Z,100768.56
2022-08-11T12:28:58.500Z,100967.50
2022-08-11T12:31:58.702Z,100711.63
2022-08-11T12:35:35.361Z,100663.53
2022-08-11T12:38:35.563Z,100720.50
2022-08-11T12:45:58.795Z,100853.63
2022-08-11T12:52:27.908Z,100946.06
2022-08-11T12:55:20.996Z,100703.22
2022-08-11T13:10:52.964Z,100688.34
2022-08-11T13:24:00.461Z,100708.53
2022-08-11T13:46:42.177Z,100799.13
2022-08-11T13:49:54.693Z,100904.72
2022-08-11T13:55:51.047Z,100818.50
2022-08-11T13:58:40.104Z,100677.25
2022-08-11T14:02:22.744Z,100886.91
2022-08-11T14:05:46.799Z,100640.97
2022-08-11T14:09:15.450Z,100837.47
2022-08-11T14:12:23.487Z,100786.03
2022-08-11T14:35:13.047Z,100693.47
2022-08-11T14:50:28.332Z,100601.34
2022-08-11T14:54:11.111Z,100822.41
2022-08-11T14:56:38.803Z,100794.66
2022-08-11T14:59:08.107Z,100786.66
2022-08-11T15:02:07.497Z,100827.50
2022-08-11T15:17:13.940Z,100818.16
2022-08-11T15:20:34.012Z,100816.91
2022-08-11T15:23:32.611Z,100818.09
2022-08-11T15:26:46.806Z,100803.75
2022-08-11T15:33:38.697Z,100696.91
2022-08-11T15:36:42.966Z,100787.16
2022-08-11T15:39:51.904Z,100777.44
2022-08-11T15:50:14.100Z,100780.81
2022-08-11T15:57:51.036Z,100779.56
2022-08-11T16:01:01.253Z,100772.09
2022-08-11T16:04:15.409Z,100718.63
2022-08-11T16:15:04.850Z,100764.88
2022-08-11T16:17:55.048Z,100761.34
2022-08-11T16:21:26.143Z,100757.19
2022-08-11T16:37:20.029Z,100715.13
2022-08-11T16:40:01.268Z,100743.09
2022-08-11T16:43:22.764Z,100534.75
2022-08-11T16:46:34.022Z,100639.13
2022-08-11T16:49:04.064Z,100456.72
2022-08-11T16:51:33.431Z,100550.59
2022-08-11T16:54:05.097Z,100592.25
2022-08-11T16:56:52.172Z,100735.75
2022-08-11T17:21:23.073Z,100651.84
2022-08-11T17:23:55.108Z,100539.81
2022-08-11T17:26:49.512Z,100484.78
2022-08-11T17:29:24.818Z,100573.13
2022-08-11T17:32:16.072Z,100514.19
2022-08-11T17:35:32.459Z,100649.91
2022-08-11T17:38:07.753Z,100642.19
2022-08-11T17:40:38.736Z,100518.03
2022-08-11T17:47:40.809Z,100501.53
2022-08-11T17:51:21.771Z,100505.09
2022-08-11T17:55:17.116Z,100635.22
2022-08-11T17:58:27.079Z,100743.97
2022-08-11T18:01:01.994Z,100498.28
2022-08-11T18:03:41.033Z,100730.22
2022-08-11T18:06:13.226Z,100518.63
2022-08-11T18:09:02.600Z,100713.97
2022-08-11T18:12:07.162Z,100739.25
2022-08-11T18:14:57.966Z,100756.97
2022-08-11T18:17:43.742Z,100756.56
2022-08-11T18:20:30.975Z,100765.41
2022-08-11T18:23:20.555Z,100755.31
2022-08-11T18:26:07.243Z,100762.47
2022-08-11T18:28:58.684Z,100763.91
2022-08-11T18:31:45.443Z,100760.75
2022-08-11T18:34:39.167Z,100762.66
2022-08-11T18:37:31.393Z,100770.56
2022-08-11T18:40:20.254Z,100768.97
2022-08-11T18:43:07.246Z,100770.22
2022-08-11T18:46:06.410Z,100772.88
2022-08-11T18:48:55.138Z,100763.75
2022-08-11T18:51:42.690Z,100781.50
2022-08-11T18:54:31.289Z,100780.72
2022-08-11T18:57:21.370Z,100562.81
2022-08-11T19:00:10.834Z,100786.25
2022-08-11T19:02:58.122Z,100760.31
2022-08-11T19:06:08.396Z,100764.19
2022-08-11T19:08:57.244Z,100791.81
2022-08-11T19:11:47.386Z,100789.13
2022-08-11T19:14:33.507Z,100764.63
2022-08-11T19:17:44.022Z,100791.84
2022-08-11T19:20:29.136Z,100807.09
2022-08-11T19:23:16.015Z,100800.91
2022-08-11T19:26:02.335Z,100800.31
2022-08-11T19:28:50.488Z,100826.94
2022-08-11T19:31:42.306Z,100821.22
2022-08-11T19:34:32.352Z,100829.63
2022-08-11T19:37:22.159Z,100719.75
2022-08-11T19:40:11.835Z,100839.81
2022-08-11T19:42:58.632Z,100843.50
2022-08-11T19:45:51.626Z,100848.16
2022-08-11T19:48:40.505Z,100823.44
2022-08-11T19:51:27.356Z,100680.97
2022-08-11T19:54:13.842Z,100853.00
2022-08-11T19:57:00.905Z,100852.25
2022-08-11T19:59:47.312Z,100830.50
2022-08-11T20:02:34.019Z,100818.66
2022-08-11T20:05:19.770Z,100851.56
2022-08-11T20:08:06.482Z,100820.03
2022-08-11T20:10:53.524Z,100785.94
2022-08-11T20:13:41.649Z,100856.06
2022-08-11T20:16:32.625Z,100837.84
2022-08-11T20:19:26.142Z,100853.25
2022-08-11T20:22:26.640Z,100850.16
2022-08-11T20:25:13.993Z,100830.69
2022-08-11T20:28:01.829Z,100866.72
2022-08-11T20:30:51.908Z,100866.59
2022-08-11T20:33:39.071Z,100833.41
2022-08-11T20:36:27.272Z,100876.00
2022-08-11T20:39:14.656Z,100831.13
2022-08-11T20:42:01.048Z,100873.94
2022-08-11T20:44:48.829Z,100866.78
2022-08-11T20:47:59.822Z,100796.94
2022-08-11T20:50:45.819Z,100878.94
2022-08-11T20:53:36.063Z,100766.06
2022-08-11T20:56:28.847Z,100852.78
2022-08-11T20:59:18.309Z,100881.06
2022-08-11T21:02:09.799Z,100873.00
2022-08-11T21:04:57.021Z,100822.59
2022-08-11T21:07:56.643Z,100828.00
2022-08-11T21:10:50.620Z,100860.59
2022-08-11T21:13:39.202Z,100876.91
2022-08-11T21:16:27.175Z,100835.50
2022-08-11T21:19:18.847Z,100878.09
2022-08-11T21:22:28.085Z,100876.63
2022-08-11T21:25:29.284Z,100887.19
2022-08-11T21:28:20.748Z,100834.06
2022-08-11T21:31:08.685Z,100833.97
2022-08-11T21:33:55.605Z,100881.75
2022-08-11T21:36:43.332Z,100729.97
2022-08-11T21:39:32.062Z,100890.53
2022-08-11T21:42:19.730Z,100845.69
2022-08-11T21:45:07.755Z,100807.44
2022-08-11T21:48:00.871Z,100870.31
2022-08-11T21:50:46.674Z,100888.31
2022-08-11T21:53:33.473Z,100891.34
2022-08-11T21:56:19.773Z,100889.03
2022-08-11T21:59:07.782Z,100847.75
2022-08-11T22:01:55.290Z,100884.13
2022-08-11T22:04:41.782Z,100849.75
2022-08-11T22:07:28.074Z,100883.03
2022-08-11T22:10:40.438Z,100871.41
2022-08-11T22:13:19.712Z,100898.69
2022-08-11T22:16:05.700Z,100858.13
2022-08-11T22:18:54.718Z,100904.72
2022-08-11T22:22:02.791Z,100858.34
2022-08-11T22:24:48.529Z,100885.38
2022-08-11T22:27:33.956Z,100908.56
2022-08-11T22:30:19.330Z,100900.09
2022-08-11T22:33:05.830Z,100899.56
2022-08-11T22:35:54.030Z,100902.31
2022-08-11T22:38:40.335Z,100905.31
2022-08-11T22:41:25.606Z,100906.66
2022-08-11T22:44:11.119Z,100906.16
2022-08-11T22:46:56.958Z,100860.53
2022-08-11T22:49:57.732Z,100901.69
2022-08-11T22:52:47.266Z,100905.31
2022-08-11T22:55:33.522Z,100887.13
2022-08-11T22:58:20.582Z,100897.66
2022-08-11T23:01:06.961Z,100775.41
2022-08-11T23:03:53.148Z,100906.50
2022-08-11T23:06:39.234Z,100872.22
2022-08-11T23:09:27.704Z,100882.91
2022-08-11T23:12:14.008Z,100884.69
2022-08-11T23:15:00.304Z,100905.16
2022-08-11T23:17:46.947Z,100908.16
2022-08-11T23:20:43.437Z,100911.94
2022-08-11T23:23:41.676Z,100732.78
2022-08-11T23:26:30.035Z,100909.13
2022-08-11T23:29:17.560Z,100894.22
2022-08-11T23:32:04.151Z,100888.03
2022-08-11T23:35:03.599Z,100881.91
2022-08-11T23:37:51.386Z,100821.97
2022-08-11T23:40:37.197Z,100771.28
2022-08-11T23:43:25.274Z,100841.19
2022-08-11T23:46:11.010Z,100891.38
2022-08-11T23:48:57.984Z,100900.78
2022-08-11T23:51:46.020Z,100907.06
2022-08-11T23:54:37.118Z,100875.53
2022-08-11T23:57:23.978Z,100905.09
